sensor_id;sensor_type;location;lat;lon;timestamp;pressure;altitude;pressure_sealevel;temperature;humidity
39891;BME280;25564;53.312;9.790;2024-03-22T00:02:18;101496.06;;;7.92;79.25
39891;BME280;25564;53.312;9.790;2024-03-22T00:04:49;101488.31;;;7.92;79.54
39891;BME280;25564;53.312;9.790;2024-03-22T00:07:19;101488.16;;;7.95;79.69
39891;BME280;25564;53.312;9.790;2024-03-22T00:09:50;101476.13;;;7.94;79.53
39891;BME280;25564;53.312;9.790;2024-03-22T00:12:20;101471.81;;;7.94;79.32
39891;BME280;25564;53.312;9.790;2024-03-22T00:14:51;101469.13;;;7.96;79.42
39891;BME280;25564;53.312;9.790;2024-03-22T00:17:24;101468.22;;;7.97;79.60
39891;BME280;25564;53.312;9.790;2024-03-22T00:19:55;101478.47;;;7.98;79.12
39891;BME280;25564;53.312;9.790;2024-03-22T00:22:25;101468.31;;;7.95;79.47
39891;BME280;25564;53.312;9.790;2024-03-22T00:24:56;101453.63;;;7.96;79.67
39891;BME280;25564;53.312;9.790;2024-03-22T00:27:26;101447.47;;;7.98;79.58
39891;BME280;25564;53.312;9.790;2024-03-22T00:29:58;101442.28;;;7.98;79.14
39891;BME280;25564;53.312;9.790;2024-03-22T00:32:29;101431.13;;;7.98;79.38
39891;BME280;25564;53.312;9.790;2024-03-22T00:35:00;101431.84;;;8.00;79.64
39891;BME280;25564;53.312;9.790;2024-03-22T00:37:30;101438.88;;;7.98;79.41
39891;BME280;25564;53.312;9.790;2024-03-22T00:40:01;101436.28;;;7.98;79.48
39891;BME280;25564;53.312;9.790;2024-03-22T00:42:32;101442.38;;;7.97;79.62
39891;BME280;25564;53.312;9.790;2024-03-22T00:45:03;101436.22;;;7.99;79.72
39891;BME280;25564;53.312;9.790;2024-03-22T00:47:33;101443.88;;;8.01;79.53
39891;BME280;25564;53.312;9.790;2024-03-22T00:50:05;101436.13;;;8.01;79.07
39891;BME280;25564;53.312;9.790;2024-03-22T00:52:35;101430.00;;;8.02;79.42
39891;BME280;25564;53.312;9.790;2024-03-22T00:55:06;101423.94;;;8.03;79.43
39891;BME280;25564;53.312;9.790;2024-03-22T00:57:37;101418.69;;;8.04;79.17
39891;BME280;25564;53.312;9.790;2024-03-22T01:00:08;101424.53;;;8.08;79.48
39891;BME280;25564;53.312;9.790;2024-03-22T01:02:40;101421.09;;;8.07;79.65
39891;BME280;25564;53.312;9.790;2024-03-22T01:05:10;101417.50;;;8.10;79.52
39891;BME280;25564;53.312;9.790;2024-03-22T01:07:41;101414.91;;;8.10;79.69
39891;BME280;25564;53.312;9.790;2024-03-22T01:10:12;101402.81;;;8.10;79.32
39891;BME280;25564;53.312;9.790;2024-03-22T01:12:42;101408.06;;;8.09;79.57
39891;BME280;25564;53.312;9.790;2024-03-22T01:15:13;101391.75;;;8.08;79.33
39891;BME280;25564;53.312;9.790;2024-03-22T01:17:44;101387.41;;;8.09;79.72
39891;BME280;25564;53.312;9.790;2024-03-22T01:20:14;101395.00;;;8.12;79.25
39891;BME280;25564;53.312;9.790;2024-03-22T01:22:45;101388.03;;;8.12;79.41
39891;BME280;25564;53.312;9.790;2024-03-22T01:25:16;101378.56;;;8.13;79.52
39891;BME280;25564;53.312;9.790;2024-03-22T01:27:46;101380.22;;;8.14;79.41
39891;BME280;25564;53.312;9.790;2024-03-22T01:30:17;101376.69;;;8.15;79.60
39891;BME280;25564;53.312;9.790;2024-03-22T01:32:47;101372.28;;;8.17;79.41
39891;BME280;25564;53.312;9.790;2024-03-22T01:35:18;101372.16;;;8.18;79.28
39891;BME280;25564;53.312;9.790;2024-03-22T01:37:49;101365.34;;;8.17;79.32
39891;BME280;25564;53.312;9.790;2024-03-22T01:40:19;101356.03;;;8.15;79.65
39891;BME280;25564;53.312;9.790;2024-03-22T01:42:55;101337.84;;;8.16;79.28
39891;BME280;25564;53.312;9.790;2024-03-22T01:45:32;101332.03;;;8.13;79.40
39891;BME280;25564;53.312;9.790;2024-03-22T01:48:03;101323.56;;;8.11;79.62
39891;BME280;25564;53.312;9.790;2024-03-22T01:50:34;101307.16;;;8.12;79.60
39891;BME280;25564;53.312;9.790;2024-03-22T01:53:05;101305.38;;;8.12;79.60
39891;BME280;25564;53.312;9.790;2024-03-22T01:55:35;101290.69;;;8.13;79.29
39891;BME280;25564;53.312;9.790;2024-03-22T01:58:06;101288.84;;;8.15;79.56
39891;BME280;25564;53.312;9.790;2024-03-22T02:00:38;101283.78;;;8.13;79.34
39891;BME280;25564;53.312;9.790;2024-03-22T02:03:09;101288.13;;;8.13;79.46
39891;BME280;25564;53.312;9.790;2024-03-22T02:05:40;101271.88;;;8.11;79.42
39891;BME280;25564;53.312;9.790;2024-03-22T02:08:10;101265.06;;;8.10;79.38
39891;BME280;25564;53.312;9.790;2024-03-22T02:10:41;101259.06;;;8.09;79.37
39891;BME280;25564;53.312;9.790;2024-03-22T02:13:12;101258.22;;;8.09;79.39
39891;BME280;25564;53.312;9.790;2024-03-22T02:15:42;101260.69;;;8.10;79.67
39891;BME280;25564;53.312;9.790;2024-03-22T02:18:13;101261.53;;;8.11;79.47
39891;BME280;25564;53.312;9.790;2024-03-22T02:20:43;101253.69;;;8.12;79.47
39891;BME280;25564;53.312;9.790;2024-03-22T02:23:15;101247.50;;;8.15;79.67
39891;BME280;25564;53.312;9.790;2024-03-22T02:25:46;101247.34;;;8.18;79.58
39891;BME280;25564;53.312;9.790;2024-03-22T02:28:16;101236.78;;;8.21;79.70
39891;BME280;25564;53.312;9.790;2024-03-22T02:30:47;101234.03;;;8.24;79.65
39891;BME280;25564;53.312;9.790;2024-03-22T02:33:20;101235.38;;;8.29;79.48
39891;BME280;25564;53.312;9.790;2024-03-22T02:35:51;101237.88;;;8.31;79.83
39891;BME280;25564;53.312;9.790;2024-03-22T02:38:22;101234.19;;;8.35;79.68
39891;BME280;25564;53.312;9.790;2024-03-22T02:40:53;101232.34;;;8.37;79.55
39891;BME280;25564;53.312;9.790;2024-03-22T02:43:24;101224.59;;;8.37;79.44
39891;BME280;25564;53.312;9.790;2024-03-22T02:45:55;101223.47;;;8.41;79.59
39891;BME280;25564;53.312;9.790;2024-03-22T02:48:25;101223.47;;;8.41;79.39
39891;BME280;25564;53.312;9.790;2024-03-22T02:50:56;101231.84;;;8.44;79.23
39891;BME280;25564;53.312;9.790;2024-03-22T02:53:27;101225.66;;;8.47;79.47
39891;BME280;25564;53.312;9.790;2024-03-22T02:56:00;101222.84;;;8.50;79.39
39891;BME280;25564;53.312;9.790;2024-03-22T02:58:30;101228.69;;;8.53;79.44
39891;BME280;25564;53.312;9.790;2024-03-22T03:01:01;101220.81;;;8.55;79.24
39891;BME280;25564;53.312;9.790;2024-03-22T03:03:33;101208.81;;;8.54;79.72
39891;BME280;25564;53.312;9.790;2024-03-22T03:06:03;101211.22;;;8.57;79.37
39891;BME280;25564;53.312;9.790;2024-03-22T03:08:34;101206.94;;;8.56;79.60
39891;BME280;25564;53.312;9.790;2024-03-22T03:11:05;101206.75;;;8.59;79.69
39891;BME280;25564;53.312;9.790;2024-03-22T03:13:35;101207.72;;;8.58;79.70
39891;BME280;25564;53.312;9.790;2024-03-22T03:16:06;101210.09;;;8.61;79.30
39891;BME280;25564;53.312;9.790;2024-03-22T03:18:38;101216.94;;;8.62;79.85
39891;BME280;25564;53.312;9.790;2024-03-22T03:21:08;101210.91;;;8.61;79.32
39891;BME280;25564;53.312;9.790;2024-03-22T03:23:39;101209.06;;;8.63;79.34
39891;BME280;25564;53.312;9.790;2024-03-22T03:26:10;101202.75;;;8.67;79.61
39891;BME280;25564;53.312;9.790;2024-03-22T03:28:41;101206.06;;;8.69;79.21
39891;BME280;25564;53.312;9.790;2024-03-22T03:31:12;101203.38;;;8.71;79.41
39891;BME280;25564;53.312;9.790;2024-03-22T03:33:43;101198.13;;;8.73;79.36
39891;BME280;25564;53.312;9.790;2024-03-22T03:36:13;101193.75;;;8.73;79.12
39891;BME280;25564;53.312;9.790;2024-03-22T03:38:45;101190.03;;;8.77;79.17
39891;BME280;25564;53.312;9.790;2024-03-22T03:41:16;101183.22;;;8.76;79.57
39891;BME280;25564;53.312;9.790;2024-03-22T03:43:46;101177.94;;;8.78;79.51
39891;BME280;25564;53.312;9.790;2024-03-22T03:46:17;101187.16;;;8.82;79.65
39891;BME280;25564;53.312;9.790;2024-03-22T03:48:48;101176.19;;;8.78;79.07
39891;BME280;25564;53.312;9.790;2024-03-22T03:51:18;101173.50;;;8.80;79.72
39891;BME280;25564;53.312;9.790;2024-03-22T03:53:49;101177.66;;;8.82;79.21
39891;BME280;25564;53.312;9.790;2024-03-22T03:56:20;101162.13;;;8.82;79.25
39891;BME280;25564;53.312;9.790;2024-03-22T03:58:50;101150.03;;;8.83;79.37
39891;BME280;25564;53.312;9.790;2024-03-22T04:01:21;101149.94;;;8.84;79.43
39891;BME280;25564;53.312;9.790;2024-03-22T04:03:53;101146.44;;;8.85;79.15
39891;BME280;25564;53.312;9.790;2024-03-22T04:06:24;101141.25;;;8.85;79.26
39891;BME280;25564;53.312;9.790;2024-03-22T04:08:54;101126.53;;;8.86;79.33
39891;BME280;25564;53.312;9.790;2024-03-22T04:11:25;101125.72;;;8.85;79.59
39891;BME280;25564;53.312;9.790;2024-03-22T04:13:55;101127.25;;;8.88;79.44
39891;BME280;25564;53.312;9.790;2024-03-22T04:16:28;101119.63;;;8.86;79.53
39891;BME280;25564;53.312;9.790;2024-03-22T04:18:58;101121.28;;;8.87;79.17
39891;BME280;25564;53.312;9.790;2024-03-22T04:21:29;101115.16;;;8.88;79.40
39891;BME280;25564;53.312;9.790;2024-03-22T04:24:00;101105.66;;;8.89;79.57
39891;BME280;25564;53.312;9.790;2024-03-22T04:26:31;101095.19;;;8.90;79.48
39891;BME280;25564;53.312;9.790;2024-03-22T04:29:02;101097.78;;;8.90;79.51
39891;BME280;25564;53.312;9.790;2024-03-22T04:31:32;101093.31;;;8.92;79.69
39891;BME280;25564;53.312;9.790;2024-03-22T04:34:03;101102.75;;;8.93;79.55
39891;BME280;25564;53.312;9.790;2024-03-22T04:36:35;101094.16;;;8.93;79.06
39891;BME280;25564;53.312;9.790;2024-03-22T04:39:06;101099.22;;;8.94;79.21
39891;BME280;25564;53.312;9.790;2024-03-22T04:41:37;101102.66;;;8.95;79.01
39891;BME280;25564;53.312;9.790;2024-03-22T04:44:07;101093.13;;;8.95;79.51
39891;BME280;25564;53.312;9.790;2024-03-22T04:46:39;101091.28;;;8.97;79.46
39891;BME280;25564;53.312;9.790;2024-03-22T04:49:10;101077.38;;;8.98;79.36
39891;BME280;25564;53.312;9.790;2024-03-22T04:51:40;101064.56;;;8.97;79.70
39891;BME280;25564;53.312;9.790;2024-03-22T04:54:11;101067.16;;;8.97;79.39
39891;BME280;25564;53.312;9.790;2024-03-22T04:56:42;101067.97;;;8.97;79.28
39891;BME280;25564;53.312;9.790;2024-03-22T04:59:12;101077.63;;;8.95;79.29
39891;BME280;25564;53.312;9.790;2024-03-22T05:01:43;101066.31;;;8.96;79.48
39891;BME280;25564;53.312;9.790;2024-03-22T05:04:14;101065.47;;;8.96;79.35
39891;BME280;25564;53.312;9.790;2024-03-22T05:06:45;101054.31;;;8.95;79.67
39891;BME280;25564;53.312;9.790;2024-03-22T05:09:16;101050.06;;;8.94;79.38
39891;BME280;25564;53.312;9.790;2024-03-22T05:11:46;101048.22;;;8.96;79.87
39891;BME280;25564;53.312;9.790;2024-03-22T05:14:21;101040.25;;;8.99;79.58
39891;BME280;25564;53.312;9.790;2024-03-22T05:16:52;101044.41;;;9.02;79.57
39891;BME280;25564;53.312;9.790;2024-03-22T05:19:22;101035.69;;;9.03;79.16
39891;BME280;25564;53.312;9.790;2024-03-22T05:21:54;101034.84;;;9.02;79.84
39891;BME280;25564;53.312;9.790;2024-03-22T05:24:24;101028.03;;;9.01;79.63
39891;BME280;25564;53.312;9.790;2024-03-22T05:26:55;101034.03;;;9.02;79.59
39891;BME280;25564;53.312;9.790;2024-03-22T05:29:25;101037.44;;;9.02;79.60
39891;BME280;25564;53.312;9.790;2024-03-22T05:31:56;101038.28;;;9.03;79.72
39891;BME280;25564;53.312;9.790;2024-03-22T05:34:27;101032.06;;;9.05;79.78
39891;BME280;25564;53.312;9.790;2024-03-22T05:36:58;101039.59;;;9.08;79.80
39891;BME280;25564;53.312;9.790;2024-03-22T05:39:29;101049.63;;;9.13;79.27
39891;BME280;25564;53.312;9.790;2024-03-22T05:42:00;101037.53;;;9.13;79.36
39891;BME280;25564;53.312;9.790;2024-03-22T05:44:30;101051.19;;;9.15;79.52
39891;BME280;25564;53.312;9.790;2024-03-22T05:47:01;101045.84;;;9.18;79.96
39891;BME280;25564;53.312;9.790;2024-03-22T05:49:32;101051.75;;;9.20;79.48
39891;BME280;25564;53.312;9.790;2024-03-22T05:52:04;101048.94;;;9.23;79.46
39891;BME280;25564;53.312;9.790;2024-03-22T05:54:34;101050.47;;;9.26;79.54
39891;BME280;25564;53.312;9.790;2024-03-22T05:57:07;101042.59;;;9.27;79.63
39891;BME280;25564;53.312;9.790;2024-03-22T05:59:37;101040.72;;;9.29;79.49
39891;BME280;25564;53.312;9.790;2024-03-22T06:02:08;101033.78;;;9.30;79.63
39891;BME280;25564;53.312;9.790;2024-03-22T06:04:39;101026.88;;;9.30;79.83
39891;BME280;25564;53.312;9.790;2024-03-22T06:07:10;101024.03;;;9.33;79.64
39891;BME280;25564;53.312;9.790;2024-03-22T06:09:40;101025.50;;;9.37;79.66
39891;BME280;25564;53.312;9.790;2024-03-22T06:12:17;101019.19;;;9.41;79.95
39891;BME280;25564;53.312;9.790;2024-03-22T06:14:48;101009.53;;;9.43;79.65
39891;BME280;25564;53.312;9.790;2024-03-22T06:17:21;101014.47;;;9.46;79.77
39891;BME280;25564;53.312;9.790;2024-03-22T06:19:54;101005.78;;;9.48;79.50
39891;BME280;25564;53.312;9.790;2024-03-22T06:22:25;101011.69;;;9.50;79.65
39891;BME280;25564;53.312;9.790;2024-03-22T06:24:56;101010.53;;;9.54;79.85
39891;BME280;25564;53.312;9.790;2024-03-22T06:27:27;101009.59;;;9.55;79.51
39891;BME280;25564;53.312;9.790;2024-03-22T06:29:57;101002.53;;;9.57;80.09
39891;BME280;25564;53.312;9.790;2024-03-22T06:32:28;100996.19;;;9.61;79.73
39891;BME280;25564;53.312;9.790;2024-03-22T06:34:59;100993.28;;;9.65;79.53
39891;BME280;25564;53.312;9.790;2024-03-22T06:37:29;100986.84;;;9.71;79.26
39891;BME280;25564;53.312;9.790;2024-03-22T06:40:00;100981.09;;;9.78;79.59
39891;BME280;25564;53.312;9.790;2024-03-22T06:42:31;100966.16;;;9.82;79.47
39891;BME280;25564;53.312;9.790;2024-03-22T06:45:02;100961.47;;;9.87;79.64
39891;BME280;25564;53.312;9.790;2024-03-22T06:47:33;100966.06;;;9.94;79.27
39891;BME280;25564;53.312;9.790;2024-03-22T06:50:04;100961.25;;;10.01;79.23
39891;BME280;25564;53.312;9.790;2024-03-22T06:52:35;100958.22;;;10.07;79.58
39891;BME280;25564;53.312;9.790;2024-03-22T06:55:06;100962.00;;;10.14;79.23
39891;BME280;25564;53.312;9.790;2024-03-22T06:57:39;100955.44;;;10.21;79.21
39891;BME280;25564;53.312;9.790;2024-03-22T07:00:11;100959.31;;;10.26;79.20
39891;BME280;25564;53.312;9.790;2024-03-22T07:02:41;100960.88;;;10.29;79.19
39891;BME280;25564;53.312;9.790;2024-03-22T07:05:12;100970.06;;;10.33;79.45
39891;BME280;25564;53.312;9.790;2024-03-22T07:07:43;100944.63;;;10.38;79.30
39891;BME280;25564;53.312;9.790;2024-03-22T07:10:13;100943.78;;;10.49;79.20
39891;BME280;25564;53.312;9.790;2024-03-22T07:12:44;100930.47;;;10.53;79.33
39891;BME280;25564;53.312;9.790;2024-03-22T07:15:14;100925.78;;;10.58;79.23
39891;BME280;25564;53.312;9.790;2024-03-22T07:17:45;100934.03;;;10.63;78.93
39891;BME280;25564;53.312;9.790;2024-03-22T07:20:15;100948.66;;;10.64;78.72
39891;BME280;25564;53.312;9.790;2024-03-22T07:22:46;100935.47;;;10.67;79.01
39891;BME280;25564;53.312;9.790;2024-03-22T07:25:17;100943.84;;;10.71;79.20
39891;BME280;25564;53.312;9.790;2024-03-22T07:27:48;100948.53;;;10.77;79.16
39891;BME280;25564;53.312;9.790;2024-03-22T07:30:19;100944.19;;;10.77;78.79
39891;BME280;25564;53.312;9.790;2024-03-22T07:32:51;100939.00;;;10.77;78.74
39891;BME280;25564;53.312;9.790;2024-03-22T07:35:22;100942.53;;;10.76;78.84
39891;BME280;25564;53.312;9.790;2024-03-22T07:37:53;100926.97;;;10.76;78.79
39891;BME280;25564;53.312;9.790;2024-03-22T07:40:23;100928.84;;;10.74;79.04
39891;BME280;25564;53.312;9.790;2024-03-22T07:42:54;100925.53;;;10.72;79.15
39891;BME280;25564;53.312;9.790;2024-03-22T07:45:24;100923.91;;;10.71;78.77
39891;BME280;25564;53.312;9.790;2024-03-22T07:47:55;100927.44;;;10.70;78.77
39891;BME280;25564;53.312;9.790;2024-03-22T07:50:25;100941.38;;;10.69;78.88
39891;BME280;25564;53.312;9.790;2024-03-22T07:52:56;100930.88;;;10.71;79.11
39891;BME280;25564;53.312;9.790;2024-03-22T07:55:26;100934.28;;;10.71;78.55
39891;BME280;25564;53.312;9.790;2024-03-22T07:57:57;100940.41;;;10.70;78.84
39891;BME280;25564;53.312;9.790;2024-03-22T08:00:28;100939.47;;;10.71;79.33
39891;BME280;25564;53.312;9.790;2024-03-22T08:03:01;100931.78;;;10.70;78.67
39891;BME280;25564;53.312;9.790;2024-03-22T08:05:32;100918.38;;;10.65;78.96
39891;BME280;25564;53.312;9.790;2024-03-22T08:08:02;100915.56;;;10.57;78.77
39891;BME280;25564;53.312;9.790;2024-03-22T08:10:33;100922.94;;;10.50;78.85
39891;BME280;25564;53.312;9.790;2024-03-22T08:13:04;100924.34;;;10.43;79.13
39891;BME280;25564;53.312;9.790;2024-03-22T08:15:36;100928.94;;;10.40;79.05
39891;BME280;25564;53.312;9.790;2024-03-22T08:18:06;100917.03;;;10.37;79.32
39891;BME280;25564;53.312;9.790;2024-03-22T08:20:37;100905.75;;;10.38;79.59
39891;BME280;25564;53.312;9.790;2024-03-22T08:23:09;100910.66;;;10.41;79.75
39891;BME280;25564;53.312;9.790;2024-03-22T08:25:39;100915.03;;;10.41;79.77
39891;BME280;25564;53.312;9.790;2024-03-22T08:28:10;100914.22;;;10.40;79.83
39891;BME280;25564;53.312;9.790;2024-03-22T08:30:40;100905.75;;;10.38;79.86
39891;BME280;25564;53.312;9.790;2024-03-22T08:33:12;100905.94;;;10.35;80.12
39891;BME280;25564;53.312;9.790;2024-03-22T08:35:43;100903.59;;;10.32;80.43
39891;BME280;25564;53.312;9.790;2024-03-22T08:38:13;100899.94;;;10.35;80.13
39891;BME280;25564;53.312;9.790;2024-03-22T08:40:46;100892.28;;;10.33;80.37
39891;BME280;25564;53.312;9.790;2024-03-22T08:43:16;100896.63;;;10.33;80.47
39891;BME280;25564;53.312;9.790;2024-03-22T08:45:47;100887.44;;;10.28;80.52
39891;BME280;25564;53.312;9.790;2024-03-22T08:48:18;100892.75;;;10.27;80.51
39891;BME280;25564;53.312;9.790;2024-03-22T08:50:48;100894.72;;;10.23;80.43
39891;BME280;25564;53.312;9.790;2024-03-22T08:53:19;100887.56;;;10.27;80.67
39891;BME280;25564;53.312;9.790;2024-03-22T08:55:49;100891.09;;;10.26;80.66
39891;BME280;25564;53.312;9.790;2024-03-22T08:58:20;100889.22;;;10.28;80.88
39891;BME280;25564;53.312;9.790;2024-03-22T09:00:51;100883.81;;;10.31;80.71
39891;BME280;25564;53.312;9.790;2024-03-22T09:03:21;100881.22;;;10.31;80.96
39891;BME280;25564;53.312;9.790;2024-03-22T09:05:53;100874.25;;;10.32;80.91
39891;BME280;25564;53.312;9.790;2024-03-22T09:08:24;100882.13;;;10.30;80.60
39891;BME280;25564;53.312;9.790;2024-03-22T09:10:54;100877.19;;;10.27;80.41
39891;BME280;25564;53.312;9.790;2024-03-22T09:13:25;100884.16;;;10.26;80.72
39891;BME280;25564;53.312;9.790;2024-03-22T09:15:59;100868.59;;;10.26;80.82
39891;BME280;25564;53.312;9.790;2024-03-22T09:18:30;100877.19;;;10.27;81.18
39891;BME280;25564;53.312;9.790;2024-03-22T09:21:01;100866.84;;;10.27;81.23
39891;BME280;25564;53.312;9.790;2024-03-22T09:23:32;100873.78;;;10.26;80.85
39891;BME280;25564;53.312;9.790;2024-03-22T09:26:03;100860.81;;;10.26;80.88
39891;BME280;25564;53.312;9.790;2024-03-22T09:28:33;100867.88;;;10.24;81.14
39891;BME280;25564;53.312;9.790;2024-03-22T09:31:05;100864.59;;;10.22;80.96
39891;BME280;25564;53.312;9.790;2024-03-22T09:33:36;100860.72;;;10.17;80.91
39891;BME280;25564;53.312;9.790;2024-03-22T09:36:06;100856.31;;;10.17;81.13
39891;BME280;25564;53.312;9.790;2024-03-22T09:38:37;100854.69;;;10.16;81.22
39891;BME280;25564;53.312;9.790;2024-03-22T09:41:09;100849.84;;;10.12;81.12
39891;BME280;25564;53.312;9.790;2024-03-22T09:43:39;100854.91;;;10.13;81.48
39891;BME280;25564;53.312;9.790;2024-03-22T09:46:12;100850.56;;;10.14;81.18
39891;BME280;25564;53.312;9.790;2024-03-22T09:48:44;100845.84;;;10.08;81.33
39891;BME280;25564;53.312;9.790;2024-03-22T09:51:16;100843.25;;;10.08;81.59
39891;BME280;25564;53.312;9.790;2024-03-22T09:53:49;100826.16;;;10.05;81.33
39891;BME280;25564;53.312;9.790;2024-03-22T09:56:21;100842.56;;;10.06;81.85
39891;BME280;25564;53.312;9.790;2024-03-22T09:58:52;100829.47;;;10.07;81.43
39891;BME280;25564;53.312;9.790;2024-03-22T10:01:24;100835.97;;;10.13;82.04
39891;BME280;25564;53.312;9.790;2024-03-22T10:03:55;100830.66;;;10.14;81.25
39891;BME280;25564;53.312;9.790;2024-03-22T10:06:26;100829.59;;;10.17;81.47
39891;BME280;25564;53.312;9.790;2024-03-22T10:09:01;100829.34;;;10.20;81.72
39891;BME280;25564;53.312;9.790;2024-03-22T10:11:32;100822.28;;;10.22;81.84
39891;BME280;25564;53.312;9.790;2024-03-22T10:14:04;100819.34;;;10.26;81.66
39891;BME280;25564;53.312;9.790;2024-03-22T10:16:35;100825.00;;;10.32;81.60
39891;BME280;25564;53.312;9.790;2024-03-22T10:19:05;100828.41;;;10.32;81.58
39891;BME280;25564;53.312;9.790;2024-03-22T10:21:36;100819.00;;;10.31;81.78
39891;BME280;25564;53.312;9.790;2024-03-22T10:24:07;100822.97;;;10.35;81.80
39891;BME280;25564;53.312;9.790;2024-03-22T10:26:38;100829.59;;;10.39;81.21
39891;BME280;25564;53.312;9.790;2024-03-22T10:29:08;100828.41;;;10.43;81.85
39891;BME280;25564;53.312;9.790;2024-03-22T10:31:41;100841.84;;;10.37;81.25
39891;BME280;25564;53.312;9.790;2024-03-22T10:34:13;100834.66;;;10.30;81.54
39891;BME280;25564;53.312;9.790;2024-03-22T10:36:44;100843.94;;;10.32;81.78
39891;BME280;25564;53.312;9.790;2024-03-22T10:39:17;100829.09;;;10.34;81.36
39891;BME280;25564;53.312;9.790;2024-03-22T10:41:51;100837.72;;;10.35;81.14
39891;BME280;25564;53.312;9.790;2024-03-22T10:44:21;100828.75;;;10.39;81.80
39891;BME280;25564;53.312;9.790;2024-03-22T10:46:55;100823.78;;;10.47;81.74
39891;BME280;25564;53.312;9.790;2024-03-22T10:49:26;100829.44;;;10.52;81.77
39891;BME280;25564;53.312;9.790;2024-03-22T10:52:01;100827.56;;;10.54;81.30
39891;BME280;25564;53.312;9.790;2024-03-22T10:54:35;100828.44;;;10.54;81.60
39891;BME280;25564;53.312;9.790;2024-03-22T10:57:12;100829.13;;;10.56;81.52
39891;BME280;25564;53.312;9.790;2024-03-22T10:59:46;100824.78;;;10.57;82.03
39891;BME280;25564;53.312;9.790;2024-03-22T11:02:17;100817.56;;;10.60;81.81
39891;BME280;25564;53.312;9.790;2024-03-22T11:04:57;100825.22;;;10.62;81.76
39891;BME280;25564;53.312;9.790;2024-03-22T11:07:29;100814.97;;;10.60;81.52
39891;BME280;25564;53.312;9.790;2024-03-22T11:10:03;100821.09;;;10.59;81.68
39891;BME280;25564;53.312;9.790;2024-03-22T11:12:37;100814.00;;;10.61;81.56
39891;BME280;25564;53.312;9.790;2024-03-22T11:15:09;100809.09;;;10.58;81.58
39891;BME280;25564;53.312;9.790;2024-03-22T11:17:42;100808.38;;;10.56;81.85
39891;BME280;25564;53.312;9.790;2024-03-22T11:20:13;100828.28;;;10.56;81.71
39891;BME280;25564;53.312;9.790;2024-03-22T11:22:43;100811.81;;;10.57;81.29
39891;BME280;25564;53.312;9.790;2024-03-22T11:25:15;100809.44;;;10.65;81.67
39891;BME280;25564;53.312;9.790;2024-03-22T11:27:46;100809.50;;;10.74;82.04
39891;BME280;25564;53.312;9.790;2024-03-22T11:30:17;100809.34;;;10.87;81.87
39891;BME280;25564;53.312;9.790;2024-03-22T11:32:47;100803.44;;;10.96;81.56
39891;BME280;25564;53.312;9.790;2024-03-22T11:35:18;100800.69;;;10.97;81.56
39891;BME280;25564;53.312;9.790;2024-03-22T11:37:50;100796.25;;;10.88;81.08
39891;BME280;25564;53.312;9.790;2024-03-22T11:40:21;100801.72;;;10.74;81.15
39891;BME280;25564;53.312;9.790;2024-03-22T11:42:55;100801.28;;;10.69;81.54
39891;BME280;25564;53.312;9.790;2024-03-22T11:45:27;100798.44;;;10.61;81.38
39891;BME280;25564;53.312;9.790;2024-03-22T11:48:01;100800.34;;;10.59;81.61
39891;BME280;25564;53.312;9.790;2024-03-22T11:50:32;100803.06;;;10.58;81.57
39891;BME280;25564;53.312;9.790;2024-03-22T11:53:05;100796.44;;;10.54;81.57
39891;BME280;25564;53.312;9.790;2024-03-22T11:55:36;100799.16;;;10.52;81.67
39891;BME280;25564;53.312;9.790;2024-03-22T11:58:09;100791.59;;;10.49;81.82
39891;BME280;25564;53.312;9.790;2024-03-22T12:00:40;100789.84;;;10.50;81.68
39891;BME280;25564;53.312;9.790;2024-03-22T12:03:10;100787.13;;;10.51;82.16
39891;BME280;25564;53.312;9.790;2024-03-22T12:05:41;100779.16;;;10.54;82.02
39891;BME280;25564;53.312;9.790;2024-03-22T12:08:12;100779.72;;;10.58;81.97
39891;BME280;25564;53.312;9.790;2024-03-22T12:10:44;100764.84;;;10.60;81.28
39891;BME280;25564;53.312;9.790;2024-03-22T12:13:15;100761.66;;;10.67;81.91
39891;BME280;25564;53.312;9.790;2024-03-22T12:15:46;100756.69;;;10.75;81.63
39891;BME280;25564;53.312;9.790;2024-03-22T12:18:16;100759.00;;;10.78;81.63
39891;BME280;25564;53.312;9.790;2024-03-22T12:20:47;100757.38;;;10.77;81.52
39891;BME280;25564;53.312;9.790;2024-03-22T12:23:17;100767.75;;;10.77;81.58
39891;BME280;25564;53.312;9.790;2024-03-22T12:25:49;100753.25;;;10.75;81.84
39891;BME280;25564;53.312;9.790;2024-03-22T12:28:23;100747.25;;;10.74;81.22
39891;BME280;25564;53.312;9.790;2024-03-22T12:30:53;100758.69;;;10.72;81.44
39891;BME280;25564;53.312;9.790;2024-03-22T12:33:24;100750.91;;;10.72;81.79
39891;BME280;25564;53.312;9.790;2024-03-22T12:35:54;100748.63;;;10.78;81.59
39891;BME280;25564;53.312;9.790;2024-03-22T12:38:25;100758.09;;;10.79;81.28
39891;BME280;25564;53.312;9.790;2024-03-22T12:40:56;100745.72;;;10.72;81.35
39891;BME280;25564;53.312;9.790;2024-03-22T12:43:27;100752.78;;;10.70;80.94
39891;BME280;25564;53.312;9.790;2024-03-22T12:45:57;100755.06;;;10.63;81.28
39891;BME280;25564;53.312;9.790;2024-03-22T12:48:28;100753.78;;;10.58;81.66
39891;BME280;25564;53.312;9.790;2024-03-22T12:50:59;100752.03;;;10.58;81.59
39891;BME280;25564;53.312;9.790;2024-03-22T12:53:30;100750.63;;;10.54;81.23
39891;BME280;25564;53.312;9.790;2024-03-22T12:56:01;100750.63;;;10.54;81.36
39891;BME280;25564;53.312;9.790;2024-03-22T12:58:34;100747.06;;;10.55;81.45
39891;BME280;25564;53.312;9.790;2024-03-22T13:01:05;100746.97;;;10.57;81.45
39891;BME280;25564;53.312;9.790;2024-03-22T13:03:37;100744.25;;;10.58;81.82
39891;BME280;25564;53.312;9.790;2024-03-22T13:06:10;100744.38;;;10.57;81.44
39891;BME280;25564;53.312;9.790;2024-03-22T13:08:41;100743.41;;;10.58;81.46
39891;BME280;25564;53.312;9.790;2024-03-22T13:11:12;100745.78;;;10.61;81.53
39891;BME280;25564;53.312;9.790;2024-03-22T13:13:44;100745.78;;;10.61;81.42
39891;BME280;25564;53.312;9.790;2024-03-22T13:16:15;100739.75;;;10.60;81.30